Time;durP1;ratioP1;P1;durP2;ratioP2;P2;SDS_P1;SDS_P2;PMS_P1;PMS_P2;Temp;Humidity;BMP_temperature;BMP_pressure;BME280_temperature;BME280_humidity;BME280_pressure;Samples;Min_cycle;Max_cycle;Signal;HPM_P1;HPM_P2
2022/08/28 00:01:01;;;;;;;11.85;5.32;;;14.40;99.90;;;;;;5094946;28;20038;-59
2022/08/28 00:03:27;;;;;;;13.05;6.20;;;14.30;99.90;;;;;;5094808;28;20083;-59
2022/08/28 00:05:52;;;;;;;14.48;6.82;;;14.20;99.90;;;;;;5094966;28;20442;-60
2022/08/28 00:08:18;;;;;;;13.15;6.82;;;14.20;99.90;;;;;;5095065;28;20044;-59
2022/08/28 00:10:44;;;;;;;13.30;6.72;;;14.20;99.90;;;;;;5095281;28;20043;-60
2022/08/28 00:13:17;;;;;;;14.40;7.45;;;14.20;99.90;;;;;;5094646;28;20101;-60
2022/08/28 00:15:43;;;;;;;14.10;7.53;;;14.20;99.90;;;;;;5095340;28;20040;-60
2022/08/28 00:18:09;;;;;;;13.73;6.90;;;14.10;99.90;;;;;;5095368;28;20032;-59
2022/08/28 00:20:36;;;;;;;15.85;8.57;;;14.10;99.90;;;;;;5077280;28;20036;-59
2022/08/28 00:23:03;;;;;;;14.63;7.50;;;14.10;99.90;;;;;;5094242;28;20118;-59
2022/08/28 00:25:30;;;;;;;14.48;7.97;;;14.10;99.90;;;;;;5094912;28;20042;-59
2022/08/28 00:27:59;;;;;;;13.05;7.80;;;14.10;99.90;;;;;;5095088;28;20048;-61
2022/08/28 00:30:38;;;;;;;12.52;7.78;;;14.00;99.90;;;;;;5094797;28;20123;-59
2022/08/28 00:33:11;;;;;;;14.23;8.02;;;14.00;99.90;;;;;;5110395;28;20071;-59
2022/08/28 00:35:39;;;;;;;14.47;7.77;;;13.90;99.90;;;;;;5094817;28;20042;-59
2022/08/28 00:38:06;;;;;;;16.88;8.27;;;13.90;99.90;;;;;;5094741;28;20285;-59
2022/08/28 00:40:31;;;;;;;13.60;7.80;;;13.90;99.90;;;;;;5094666;28;20040;-60
2022/08/28 00:42:59;;;;;;;14.73;7.10;;;13.90;99.90;;;;;;5093925;28;20054;-60
2022/08/28 00:45:26;;;;;;;15.18;7.60;;;13.90;99.90;;;;;;5094595;28;20659;-59
2022/08/28 00:47:52;;;;;;;17.52;7.47;;;13.90;99.90;;;;;;5094576;28;20036;-60
2022/08/28 00:50:20;;;;;;;13.95;7.25;;;13.80;99.90;;;;;;5094276;28;20036;-60
2022/08/28 00:52:49;;;;;;;9.85;6.72;;;13.80;99.90;;;;;;5094462;28;20040;-60
2022/08/28 00:55:21;;;;;;;12.25;6.63;;;13.70;99.90;;;;;;5094266;28;20066;-59
2022/08/28 00:57:53;;;;;;;12.05;6.38;;;13.70;99.90;;;;;;5094095;28;20396;-60
2022/08/28 01:00:24;;;;;;;11.82;6.55;;;13.70;99.90;;;;;;5094464;28;20051;-60
2022/08/28 01:02:50;;;;;;;11.52;6.60;;;13.70;99.90;;;;;;5094036;28;20044;-60
2022/08/28 01:05:16;;;;;;;13.15;6.28;;;13.80;99.90;;;;;;5094043;28;20082;-60
2022/08/28 01:07:43;;;;;;;12.55;6.88;;;13.70;99.90;;;;;;5092380;28;20133;-59
2022/08/28 01:10:13;;;;;;;14.27;6.85;;;13.70;99.90;;;;;;5093899;28;20132;-59
2022/08/28 01:12:38;;;;;;;13.13;6.20;;;13.70;99.90;;;;;;5093796;28;20304;-60
2022/08/28 01:15:10;;;;;;;12.52;6.45;;;13.70;99.90;;;;;;5093836;28;20122;-59
2022/08/28 01:17:41;;;;;;;12.57;5.72;;;13.70;99.90;;;;;;5075969;28;20425;-59
2022/08/28 01:20:12;;;;;;;11.93;5.90;;;13.60;99.90;;;;;;5076224;28;20131;-59
2022/08/28 01:23:03;;;;;;;10.48;5.95;;;13.60;99.90;;;;;;5093572;28;20043;-60
2022/08/28 01:25:32;;;;;;;16.05;5.82;;;13.60;99.90;;;;;;5093880;28;20085;-59
2022/08/28 01:27:59;;;;;;;11.73;6.00;;;13.60;99.90;;;;;;5093028;28;20050;-59
2022/08/28 01:30:27;;;;;;;10.45;5.53;;;13.60;99.90;;;;;;5093343;28;20127;-59
2022/08/28 01:32:54;;;;;;;12.20;6.40;;;13.60;99.90;;;;;;5093100;28;20086;-59
2022/08/28 01:35:24;;;;;;;13.38;5.85;;;13.60;99.90;;;;;;5093670;28;20326;-60
2022/08/28 01:37:51;;;;;;;10.15;5.88;;;13.60;99.90;;;;;;5093551;28;20066;-59
2022/08/28 01:40:24;;;;;;;11.68;5.63;;;13.60;99.90;;;;;;5093672;28;20047;-59
2022/08/28 01:42:50;;;;;;;12.43;6.00;;;13.50;99.90;;;;;;5093748;28;20036;-59
2022/08/28 01:45:19;;;;;;;14.50;6.18;;;13.50;99.90;;;;;;5093182;28;20148;-59
2022/08/28 01:47:45;;;;;;;11.70;5.50;;;13.50;99.90;;;;;;5058856;28;20047;-59
2022/08/28 01:50:16;;;;;;;9.75;5.10;;;13.50;99.90;;;;;;5093395;28;20069;-58
2022/08/28 01:52:42;;;;;;;9.90;5.55;;;13.40;99.90;;;;;;5092766;28;20101;-59
2022/08/28 01:55:10;;;;;;;10.60;5.15;;;13.50;99.90;;;;;;5092787;28;20504;-60
2022/08/28 01:57:45;;;;;;;13.88;5.93;;;13.40;99.90;;;;;;5093202;28;20043;-59
2022/08/28 02:00:13;;;;;;;9.43;5.63;;;13.40;99.90;;;;;;5093251;28;20035;-59
2022/08/28 02:02:39;;;;;;;10.45;6.32;;;13.40;99.90;;;;;;5092547;28;20060;-59
2022/08/28 02:05:07;;;;;;;8.75;5.43;;;13.30;99.90;;;;;;5092713;28;20035;-59
2022/08/28 02:07:32;;;;;;;13.55;5.80;;;13.30;99.90;;;;;;5092548;28;20047;-58
2022/08/28 02:09:58;;;;;;;12.38;5.85;;;13.40;99.90;;;;;;5091959;28;20039;-60
2022/08/28 02:12:24;;;;;;;10.90;5.65;;;13.30;99.90;;;;;;5074413;28;20415;-58
2022/08/28 02:14:49;;;;;;;12.25;5.68;;;13.30;99.90;;;;;;5092507;28;20093;-59
2022/08/28 02:17:15;;;;;;;11.77;6.22;;;13.30;99.90;;;;;;5092896;28;20064;-59
2022/08/28 02:19:41;;;;;;;10.73;5.53;;;13.20;99.90;;;;;;5092465;28;20039;-60
2022/08/28 02:22:08;;;;;;;9.82;5.47;;;13.30;99.90;;;;;;5092764;28;20100;-62
2022/08/28 02:24:34;;;;;;;12.38;6.43;;;13.20;99.90;;;;;;5092226;28;20040;-59
2022/08/28 02:27:01;;;;;;;10.77;6.05;;;13.30;99.90;;;;;;5092610;28;20027;-59
2022/08/28 02:29:27;;;;;;;12.52;5.72;;;13.20;99.90;;;;;;5092625;28;20039;-61
2022/08/28 02:31:53;;;;;;;11.00;6.10;;;13.20;99.90;;;;;;5092549;28;20115;-60
2022/08/28 02:34:18;;;;;;;12.30;6.03;;;13.20;99.90;;;;;;5091945;28;20128;-60
2022/08/28 02:36:44;;;;;;;11.13;5.50;;;13.30;99.90;;;;;;5092255;28;20087;-60
2022/08/28 02:39:10;;;;;;;13.38;6.00;;;13.20;99.90;;;;;;5074216;28;20040;-60
2022/08/28 02:41:36;;;;;;;10.02;5.10;;;13.20;99.90;;;;;;5092134;28;20123;-60
2022/08/28 02:44:02;;;;;;;13.57;5.78;;;13.20;99.90;;;;;;5091673;28;20071;-59
2022/08/28 02:46:28;;;;;;;9.90;5.35;;;13.20;99.90;;;;;;5091952;28;20483;-60
2022/08/28 02:48:55;;;;;;;9.32;5.50;;;13.20;99.90;;;;;;5092165;28;20044;-60
2022/08/28 02:51:21;;;;;;;11.88;5.65;;;13.20;99.90;;;;;;5092043;28;20513;-60
2022/08/28 02:53:49;;;;;;;13.85;5.75;;;13.10;99.90;;;;;;5091255;28;20364;-60
2022/08/28 02:56:16;;;;;;;9.95;5.38;;;13.10;99.90;;;;;;5092186;28;20046;-60
2022/08/28 02:58:41;;;;;;;11.70;6.03;;;13.10;99.90;;;;;;5091807;28;20469;-60
2022/08/28 03:01:10;;;;;;;14.20;6.00;;;13.10;99.90;;;;;;5092314;28;20037;-60
2022/08/28 03:03:36;;;;;;;10.57;5.50;;;13.10;99.90;;;;;;5091458;28;20028;-60
2022/08/28 03:06:03;;;;;;;11.88;5.82;;;13.10;99.90;;;;;;5091828;28;20488;-60
2022/08/28 03:08:30;;;;;;;10.75;5.38;;;13.00;99.90;;;;;;5091441;28;20048;-60
2022/08/28 03:10:56;;;;;;;14.07;5.75;;;13.00;99.90;;;;;;5091435;28;20390;-60
2022/08/28 03:13:22;;;;;;;8.77;5.50;;;13.00;99.90;;;;;;5091357;28;20042;-60
2022/08/28 03:15:47;;;;;;;12.65;5.93;;;13.00;99.90;;;;;;5092076;28;20054;-59
2022/08/28 03:18:14;;;;;;;12.68;5.20;;;13.10;99.90;;;;;;5092072;28;20036;-59
2022/08/28 03:20:41;;;;;;;8.23;5.30;;;13.00;99.90;;;;;;5091650;28;20040;-60
2022/08/28 03:23:25;;;;;;;8.63;4.70;;;13.00;99.90;;;;;;5090900;28;20062;-59
2022/08/28 03:25:59;;;;;;;13.18;5.47;;;13.00;99.90;;;;;;5091585;28;20055;-60
2022/08/28 03:28:27;;;;;;;11.75;5.20;;;13.10;99.90;;;;;;5091467;28;20051;-60
2022/08/28 03:30:53;;;;;;;10.10;5.25;;;13.10;99.90;;;;;;5091589;28;20119;-60
2022/08/28 03:33:19;;;;;;;11.15;5.35;;;13.10;99.90;;;;;;5090868;28;20106;-61
2022/08/28 03:35:45;;;;;;;10.65;5.20;;;13.10;99.90;;;;;;5091855;28;20051;-60
2022/08/28 03:38:11;;;;;;;10.55;5.40;;;13.10;99.90;;;;;;5091591;28;20058;-59
2022/08/28 03:40:42;;;;;;;9.38;5.55;;;13.10;99.90;;;;;;5091490;28;20051;-60
2022/08/28 03:43:12;;;;;;;10.25;5.00;;;13.10;99.90;;;;;;5091178;28;20059;-60
2022/08/28 03:45:39;;;;;;;15.52;5.20;;;13.10;99.90;;;;;;5091839;28;20383;-60
2022/08/28 03:48:06;;;;;;;9.63;4.95;;;13.10;99.90;;;;;;5091670;28;20040;-59
2022/08/28 03:50:33;;;;;;;11.75;4.50;;;13.10;99.90;;;;;;5091295;28;20080;-59
2022/08/28 03:52:58;;;;;;;10.20;5.32;;;13.10;99.90;;;;;;5090823;28;20068;-59
2022/08/28 03:55:25;;;;;;;8.40;4.97;;;13.10;99.90;;;;;;5091542;28;20470;-59
2022/08/28 03:57:51;;;;;;;9.73;4.90;;;13.10;99.90;;;;;;5091201;28;20051;-60
2022/08/28 04:00:17;;;;;;;12.15;5.28;;;13.00;99.90;;;;;;5091790;28;20119;-59
2022/08/28 04:02:44;;;;;;;10.52;5.40;;;13.00;99.90;;;;;;5089996;28;20043;-60
2022/08/28 04:05:11;;;;;;;11.13;5.10;;;13.00;99.90;;;;;;5091764;28;20062;-60
2022/08/28 04:07:38;;;;;;;12.68;5.22;;;13.00;99.90;;;;;;5090854;28;20036;-59
2022/08/28 04:10:05;;;;;;;10.50;5.07;;;12.90;99.90;;;;;;5091474;28;20047;-59
2022/08/28 04:12:30;;;;;;;8.43;5.10;;;13.00;99.90;;;;;;5091031;28;20036;-59
2022/08/28 04:14:56;;;;;;;15.07;5.53;;;13.00;99.90;;;;;;5090947;28;20445;-60
2022/08/28 04:17:22;;;;;;;11.40;5.20;;;13.00;99.90;;;;;;5073227;28;20108;-60
2022/08/28 04:19:51;;;;;;;10.35;5.05;;;13.00;99.90;;;;;;5091596;28;20055;-59
2022/08/28 04:22:17;;;;;;;10.50;5.07;;;12.90;99.90;;;;;;5091455;28;20046;-59
2022/08/28 04:24:42;;;;;;;9.27;4.88;;;12.90;99.90;;;;;;5090622;28;20044;-59
2022/08/28 04:27:08;;;;;;;11.18;5.10;;;12.90;99.90;;;;;;5090939;28;20048;-59
2022/08/28 04:29:34;;;;;;;12.75;5.32;;;12.90;99.90;;;;;;5091260;28;20040;-59
2022/08/28 04:32:00;;;;;;;9.05;5.30;;;12.90;99.90;;;;;;5091237;28;20064;-59
2022/08/28 04:34:25;;;;;;;11.25;4.80;;;12.90;99.90;;;;;;5075835;28;20040;-59
2022/08/28 04:36:51;;;;;;;10.68;5.03;;;12.90;99.90;;;;;;5094284;28;20044;-59
2022/08/28 04:39:17;;;;;;;9.60;5.25;;;12.90;99.90;;;;;;5094975;28;20095;-59
2022/08/28 04:41:43;;;;;;;9.63;5.03;;;12.80;99.90;;;;;;5095172;28;20040;-59
2022/08/28 04:44:09;;;;;;;13.68;5.28;;;13.00;99.90;;;;;;5093996;28;20075;-60
2022/08/28 04:46:35;;;;;;;11.60;4.35;;;12.90;99.90;;;;;;5094660;28;20338;-59
2022/08/28 04:49:03;;;;;;;8.85;4.50;;;12.90;99.90;;;;;;5094369;28;20104;-60
2022/08/28 04:51:29;;;;;;;11.02;4.80;;;12.90;99.90;;;;;;5076416;28;20071;-61
2022/08/28 04:53:57;;;;;;;12.68;5.35;;;12.90;99.90;;;;;;5093468;28;20051;-59
2022/08/28 04:56:23;;;;;;;11.15;4.85;;;13.00;99.90;;;;;;5094002;28;20036;-59
2022/08/28 04:58:49;;;;;;;12.20;4.93;;;13.00;99.90;;;;;;5094198;28;20043;-59
2022/08/28 05:01:22;;;;;;;11.55;5.03;;;13.10;99.90;;;;;;5094258;28;20028;-59
2022/08/28 05:03:53;;;;;;;10.00;4.65;;;13.20;99.90;;;;;;5095006;28;20055;-61
2022/08/28 05:06:20;;;;;;;13.07;4.40;;;13.30;99.90;;;;;;5080165;28;20099;-59
2022/08/28 05:08:46;;;;;;;9.95;4.28;;;13.40;99.90;;;;;;5093687;28;20052;-60
2022/08/28 05:11:17;;;;;;;10.15;4.50;;;13.40;99.90;;;;;;5094298;28;20047;-62
2022/08/28 05:13:43;;;;;;;8.45;3.88;;;13.50;99.90;;;;;;5093764;28;20040;-59
2022/08/28 05:16:08;;;;;;;11.48;4.68;;;13.50;99.90;;;;;;5075959;28;20104;-60
2022/08/28 05:18:34;;;;;;;10.73;4.30;;;13.70;99.90;;;;;;5094061;28;20043;-60
2022/08/28 05:21:01;;;;;;;11.60;4.18;;;13.80;99.90;;;;;;5093628;28;20039;-60
2022/08/28 05:23:27;;;;;;;13.55;4.43;;;13.80;99.90;;;;;;5108753;28;20061;-60
2022/08/28 05:25:54;;;;;;;12.18;4.20;;;13.70;99.90;;;;;;5075965;28;20047;-60
2022/08/28 05:28:20;;;;;;;9.57;4.65;;;13.80;99.90;;;;;;5093630;28;20043;-61
2022/08/28 05:30:46;;;;;;;10.10;4.40;;;13.80;99.90;;;;;;5093846;28;20036;-59
2022/08/28 05:33:14;;;;;;;8.52;4.10;;;13.80;99.90;;;;;;5108656;28;20106;-60
2022/08/28 05:35:43;;;;;;;9.15;4.60;;;13.90;99.90;;;;;;5058061;28;20652;-60
2022/08/28 05:38:11;;;;;;;9.25;3.85;;;13.90;99.90;;;;;;5093472;28;20047;-61
2022/08/28 05:40:42;;;;;;;10.52;3.97;;;14.10;99.90;;;;;;5093531;28;20042;-60
2022/08/28 05:43:09;;;;;;;14.27;3.75;;;14.70;99.90;;;;;;5092781;28;20539;-60
2022/08/28 05:45:34;;;;;;;8.48;4.05;;;15.40;99.90;;;;;;5075247;28;20473;-60
2022/08/28 05:48:00;;;;;;;7.85;3.90;;;15.70;99.90;;;;;;5093529;28;20097;-60
2022/08/28 05:50:26;;;;;;;7.88;2.97;;;15.80;99.90;;;;;;5093141;28;20107;-60
2022/08/28 05:52:52;;;;;;;7.05;3.33;;;16.10;99.90;;;;;;5074452;28;20099;-60
2022/08/28 05:55:17;;;;;;;6.80;3.25;;;16.80;99.90;;;;;;5093503;28;20051;-60
2022/08/28 05:57:44;;;;;;;8.25;3.30;;;17.50;99.90;;;;;;5093404;28;20036;-60
2022/08/28 06:00:12;;;;;;;8.27;3.28;;;18.20;99.90;;;;;;5075213;28;20040;-60
2022/08/28 06:02:38;;;;;;;8.43;3.17;;;18.90;99.90;;;;;;5092159;28;20044;-60
2022/08/28 06:05:04;;;;;;;7.65;3.28;;;19.30;99.90;;;;;;5093160;28;20048;-60
2022/08/28 06:07:32;;;;;;;8.85;2.72;;;19.40;99.90;;;;;;5092533;28;20093;-60
2022/08/28 06:09:57;;;;;;;9.93;3.20;;;19.60;99.90;;;;;;5074981;28;20055;-60
2022/08/28 06:12:23;;;;;;;10.82;3.40;;;20.00;99.90;;;;;;5092754;28;20044;-60
2022/08/28 06:14:48;;;;;;;10.52;2.90;;;20.30;99.90;;;;;;5092559;28;20032;-60
2022/08/28 06:17:14;;;;;;;8.23;2.65;;;20.70;99.90;;;;;;5093367;28;20036;-60
2022/08/28 06:19:40;;;;;;;9.65;2.75;;;21.00;99.90;;;;;;5092814;28;20043;-61
2022/08/28 06:22:06;;;;;;;5.75;2.38;;;21.40;99.90;;;;;;5092791;28;20397;-60
2022/08/28 06:24:32;;;;;;;4.72;2.13;;;21.70;99.90;;;;;;5092030;28;20035;-61
2022/08/28 06:26:58;;;;;;;8.82;2.60;;;21.80;99.90;;;;;;5092575;28;20157;-60
2022/08/28 06:29:26;;;;;;;6.72;2.45;;;21.90;99.90;;;;;;5091447;28;20440;-60
2022/08/28 06:32:03;;;;;;;7.05;2.58;;;21.60;99.90;;;;;;5092443;28;20036;-60
2022/08/28 06:34:29;;;;;;;9.48;2.53;;;21.40;99.90;;;;;;5073914;28;20457;-60
2022/08/28 06:36:55;;;;;;;8.55;2.85;;;21.30;99.90;;;;;;5074373;28;20040;-60
2022/08/28 06:39:21;;;;;;;6.40;2.20;;;21.10;99.90;;;;;;5092496;28;20041;-61
2022/08/28 06:41:46;;;;;;;6.65;2.28;;;21.20;99.90;;;;;;5092662;28;20039;-61
2022/08/28 06:44:18;;;;;;;7.03;2.40;;;21.20;99.90;;;;;;5091773;28;20054;-60
2022/08/28 06:46:49;;;;;;;6.78;2.03;;;21.30;99.90;;;;;;5092498;28;20365;-60
2022/08/28 06:49:15;;;;;;;8.35;2.33;;;21.30;99.90;;;;;;5092424;28;20051;-61
2022/08/28 06:51:40;;;;;;;6.80;2.05;;;21.40;99.90;;;;;;5074153;28;20036;-61
2022/08/28 06:54:06;;;;;;;6.07;2.20;;;21.30;99.90;;;;;;5073255;28;20062;-60
2022/08/28 06:56:33;;;;;;;5.35;2.30;;;21.40;99.90;;;;;;5091803;28;20028;-60
2022/08/28 06:58:58;;;;;;;7.13;2.38;;;21.40;99.90;;;;;;5073886;28;20427;-60
2022/08/28 07:01:33;;;;;;;7.80;2.90;;;21.40;99.90;;;;;;5092141;28;20107;-61
2022/08/28 07:04:05;;;;;;;7.03;2.50;;;21.60;99.90;;;;;;5091349;28;20101;-61
2022/08/28 07:06:33;;;;;;;5.57;2.00;;;21.70;99.90;;;;;;5092047;28;20119;-60
2022/08/28 07:08:59;;;;;;;4.88;2.25;;;21.90;99.90;;;;;;5073479;28;20512;-61
2022/08/28 07:11:28;;;;;;;8.90;2.60;;;22.10;99.90;;;;;;5077845;28;20044;-60
2022/08/28 07:13:55;;;;;;;5.28;2.20;;;22.00;99.90;;;;;;5073600;28;20376;-60
2022/08/28 07:16:24;;;;;;;5.93;2.47;;;22.00;99.90;;;;;;5091801;28;20036;-60
2022/08/28 07:18:50;;;;;;;5.72;2.10;;;21.80;99.90;;;;;;5091863;28;20040;-61
2022/08/28 07:21:16;;;;;;;6.20;2.13;;;21.40;99.90;;;;;;5091725;28;20378;-60
2022/08/28 07:23:43;;;;;;;6.30;2.30;;;21.30;99.90;;;;;;5090731;28;20411;-60
2022/08/28 07:26:11;;;;;;;8.27;2.20;;;21.00;99.90;;;;;;5091538;28;20052;-60
2022/08/28 07:28:37;;;;;;;6.63;1.83;;;20.90;99.90;;;;;;5090780;28;20110;-61
2022/08/28 07:31:08;;;;;;;8.50;1.98;;;20.80;99.90;;;;;;5091717;28;20044;-59
2022/08/28 07:33:35;;;;;;;7.15;1.92;;;20.80;99.90;;;;;;5091161;28;20032;-60
2022/08/28 07:36:08;;;;;;;6.32;2.00;;;20.50;99.90;;;;;;5056965;28;20377;-60
2022/08/28 07:38:34;;;;;;;6.37;1.97;;;20.40;99.90;;;;;;5073787;28;20048;-60
2022/08/28 07:41:01;;;;;;;7.38;1.98;;;20.30;99.90;;;;;;5091282;28;20281;-60
2022/08/28 07:46:10;;;;;;;;;;;20.30;99.90;;;;;;5080264;28;20040;-60
2022/08/28 07:48:37;;;;;;;8.43;1.83;;;20.20;99.90;;;;;;5091217;28;19916;-60
2022/08/28 07:51:04;;;;;;;7.25;2.33;;;20.10;99.90;;;;;;5073387;28;20161;-60
2022/08/28 07:53:30;;;;;;;6.75;1.83;;;20.10;99.90;;;;;;5090378;28;20079;-60
2022/08/28 07:55:56;;;;;;;6.63;1.70;;;20.20;99.90;;;;;;5091127;28;20451;-60
2022/08/28 07:58:25;;;;;;;6.28;1.90;;;20.00;99.90;;;;;;5091480;28;20044;-60
2022/08/28 08:00:52;;;;;;;7.30;1.98;;;20.10;99.90;;;;;;5073469;28;20039;-60
2022/08/28 08:03:19;;;;;;;9.45;1.98;;;20.20;99.90;;;;;;5090526;28;20481;-59
2022/08/28 08:05:56;;;;;;;6.20;1.95;;;20.20;99.90;;;;;;5091561;28;20175;-60
2022/08/28 08:08:22;;;;;;;7.28;1.80;;;20.50;99.90;;;;;;5092356;28;20044;-60
2022/08/28 08:10:59;;;;;;;10.68;1.73;;;20.50;99.90;;;;;;5093780;28;20051;-60
2022/08/28 08:13:25;;;;;;;6.43;2.08;;;20.70;99.90;;;;;;5094496;28;20043;-60
2022/08/28 08:15:51;;;;;;;5.35;2.03;;;20.70;99.90;;;;;;5095024;28;20040;-60
2022/08/28 08:18:18;;;;;;;5.32;1.70;;;20.60;99.90;;;;;;5095222;28;20107;-59
2022/08/28 08:20:43;;;;;;;7.80;1.98;;;20.70;99.90;;;;;;5095140;28;20072;-60
2022/08/28 08:23:09;;;;;;;7.82;2.10;;;20.70;99.90;;;;;;5091980;28;20397;-59
2022/08/28 08:25:34;;;;;;;5.38;1.88;;;20.70;99.90;;;;;;5094633;28;20476;-59
2022/08/28 08:28:02;;;;;;;5.53;1.55;;;20.80;99.90;;;;;;5094682;28;20118;-60
2022/08/28 08:30:28;;;;;;;4.57;1.65;;;20.90;99.90;;;;;;5094312;28;20040;-60
2022/08/28 08:32:53;;;;;;;5.53;1.70;;;21.00;99.90;;;;;;5093874;28;20038;-60
2022/08/28 08:35:19;;;;;;;5.78;1.60;;;21.00;99.90;;;;;;5094672;28;20127;-60
2022/08/28 08:37:45;;;;;;;6.47;1.75;;;20.90;99.90;;;;;;5094792;28;20046;-60
2022/08/28 08:40:17;;;;;;;7.15;1.73;;;20.90;99.90;;;;;;5095008;28;20043;-61
2022/08/28 08:42:46;;;;;;;5.97;1.98;;;20.80;99.90;;;;;;5095929;28;20044;-60
2022/08/28 08:45:14;;;;;;;4.47;1.80;;;21.20;99.90;;;;;;5095606;28;20059;-60
2022/08/28 08:47:48;;;;;;;5.97;1.67;;;21.00;99.90;;;;;;5095710;28;20465;-59
2022/08/28 08:50:21;;;;;;;;;;;20.90;99.90;;;;;;5121492;27;20087;-59
2022/08/28 08:53:06;;;;;;;4.55;1.45;;;20.90;99.90;;;;;;5077103;28;20422;-60
2022/08/28 08:55:34;;;;;;;4.35;1.63;;;21.00;99.90;;;;;;5094882;28;20047;-60
2022/08/28 08:58:05;;;;;;;5.22;1.55;;;21.00;99.90;;;;;;5095360;28;20097;-60
2022/08/28 09:00:38;;;;;;;5.57;1.70;;;20.90;99.90;;;;;;5096577;28;20036;-60
2022/08/28 09:03:11;;;;;;;4.35;1.80;;;20.80;99.90;;;;;;5077935;28;20036;-60
2022/08/28 09:05:43;;;;;;;5.72;1.77;;;20.50;99.90;;;;;;5095292;28;20036;-59
2022/08/28 09:08:20;;;;;;;6.68;1.67;;;20.30;99.90;;;;;;5095067;28;20060;-60
2022/08/28 09:11:01;;;;;;;6.18;1.70;;;20.10;99.90;;;;;;5095036;28;20063;-61
2022/08/28 09:13:37;;;;;;;6.75;1.90;;;20.00;99.90;;;;;;5109470;28;20073;-60
2022/08/28 09:16:12;;;;;;;7.28;1.88;;;20.10;99.90;;;;;;5076622;28;20036;-60
2022/08/28 09:18:38;;;;;;;6.07;1.90;;;20.20;99.90;;;;;;5092672;28;20046;-59
2022/08/28 09:21:04;;;;;;;5.13;1.73;;;20.40;99.90;;;;;;5095713;28;20040;-60
2022/08/28 09:23:30;;;;;;;6.38;2.15;;;20.50;99.90;;;;;;5095114;28;20365;-60
2022/08/28 09:25:56;;;;;;;4.20;1.73;;;20.70;99.90;;;;;;5078089;28;20055;-60
2022/08/28 09:28:26;;;;;;;2.83;1.52;;;20.80;99.90;;;;;;5078507;28;20055;-62
2022/08/28 09:31:06;;;;;;;5.78;2.00;;;21.00;99.90;;;;;;5088243;28;20051;-61
2022/08/28 09:33:37;;;;;;;5.90;1.70;;;21.10;99.90;;;;;;5076186;28;20040;-60
2022/08/28 09:36:27;;;;;;;5.28;1.50;;;21.40;99.80;;;;;;5101041;28;20039;-60
2022/08/28 09:39:12;;;;;;;5.43;1.60;;;21.50;99.60;;;;;;5093385;28;20044;-62
2022/08/28 09:44:59;;;;;;;6.55;2.00;;;21.20;99.90;;;;;;5093038;28;20044;-61
2022/08/28 09:47:43;;;;;;;6.78;1.73;;;21.00;99.90;;;;;;5092730;28;20032;-62
2022/08/28 09:50:19;;;;;;;8.10;1.90;;;20.70;99.90;;;;;;5093765;28;20035;-62
2022/08/28 09:52:45;;;;;;;6.53;1.90;;;20.60;99.90;;;;;;5090475;28;20051;-61
2022/08/28 09:55:18;;;;;;;8.45;1.65;;;20.40;99.90;;;;;;5093882;28;20032;-61
2022/08/28 09:57:46;;;;;;;3.75;1.63;;;20.40;99.90;;;;;;5092319;28;20042;-60
2022/08/28 10:00:12;;;;;;;5.07;2.08;;;20.50;99.90;;;;;;5095828;28;20044;-61
2022/08/28 10:03:04;;;;;;;4.85;1.70;;;20.70;99.90;;;;;;5093462;28;20044;-61
2022/08/28 10:05:39;;;;;;;6.97;1.80;;;20.70;99.90;;;;;;5093502;28;20048;-61
2022/08/28 10:08:40;;;;;;;4.00;1.90;;;21.00;99.90;;;;;;5091961;28;20474;-61
2022/08/28 10:11:43;;;;;;;5.53;1.80;;;21.20;99.90;;;;;;5064010;28;20048;-61
2022/08/28 10:14:40;;;;;;;4.10;1.55;;;21.00;99.90;;;;;;5072211;28;20056;-62
2022/08/28 10:17:23;;;;;;;5.53;1.70;;;21.00;99.50;;;;;;5093549;28;20052;-65
2022/08/28 10:20:09;;;;;;;4.95;1.60;;;20.90;98.90;;;;;;5093478;28;20032;-63
2022/08/28 10:23:01;;;;;;;5.82;2.03;;;21.00;99.30;;;;;;5092967;28;20111;-61
2022/08/28 10:25:37;;;;;;;5.40;1.95;;;21.50;99.20;;;;;;5073425;28;20075;-61
2022/08/28 10:28:22;;;;;;;6.47;2.03;;;21.70;99.40;;;;;;5092919;28;20390;-62
2022/08/28 10:31:04;;;;;;;7.03;1.83;;;21.70;99.20;;;;;;5079360;28;20039;-61
2022/08/28 10:34:13;;;;;;;4.90;1.85;;;21.40;99.60;;;;;;5092724;28;20078;-61
2022/08/28 10:36:39;;;;;;;6.30;1.92;;;21.20;99.30;;;;;;5042956;28;20059;-61
2022/08/28 10:39:20;;;;;;;5.47;1.75;;;21.10;99.80;;;;;;5091601;28;20032;-61
2022/08/28 10:41:55;;;;;;;6.38;2.00;;;21.30;99.70;;;;;;5092792;28;20119;-61
2022/08/28 10:44:31;;;;;;;5.72;1.88;;;21.60;99.60;;;;;;5092134;28;20039;-61
2022/08/28 10:46:57;;;;;;;6.00;1.77;;;21.60;99.70;;;;;;5074639;28;20491;-61
2022/08/28 10:49:33;;;;;;;4.93;1.80;;;21.80;99.90;;;;;;5074378;28;20119;-62
2022/08/28 10:52:10;;;;;;;6.43;2.08;;;22.20;99.50;;;;;;5092548;28;20046;-61
2022/08/28 10:54:55;;;;;;;7.32;1.83;;;22.50;98.20;;;;;;5092832;28;20066;-61
2022/08/28 10:57:30;;;;;;;7.07;1.92;;;22.50;98.20;;;;;;5092897;28;20108;-61
2022/08/28 10:59:58;;;;;;;4.30;1.65;;;22.60;98.10;;;;;;5092742;28;20125;-62
2022/08/28 11:02:26;;;;;;;3.95;1.70;;;22.20;98.30;;;;;;5074521;28;20075;-61
2022/08/28 11:04:54;;;;;;;7.38;2.10;;;22.00;98.70;;;;;;5092685;28;20047;-61
2022/08/28 11:07:33;;;;;;;7.75;1.88;;;21.80;99.00;;;;;;5092373;28;20114;-60
2022/08/28 11:10:34;;;;;;;3.97;1.90;;;21.80;99.20;;;;;;5091934;28;20048;-61
2022/08/28 11:13:01;;;;;;;8.52;2.08;;;22.30;98.40;;;;;;5034288;28;20037;-62
2022/08/28 11:15:27;;;;;;;5.72;2.25;;;22.40;98.20;;;;;;5081927;28;20119;-61
2022/08/28 11:18:17;;;;;;;6.57;2.03;;;22.10;98.30;;;;;;5095908;28;20174;-61
2022/08/28 11:20:59;;;;;;;3.60;1.65;;;21.80;97.90;;;;;;5093239;28;20464;-61
2022/08/28 11:23:45;;;;;;;6.28;2.33;;;21.80;98.60;;;;;;5076082;28;20038;-62
2022/08/28 11:26:13;;;;;;;5.15;1.88;;;21.70;98.50;;;;;;5093617;28;20117;-61
2022/08/28 11:28:41;;;;;;;5.68;2.20;;;21.60;99.10;;;;;;5093319;28;20068;-61
2022/08/28 11:31:07;;;;;;;7.88;2.20;;;21.60;99.20;;;;;;5091849;28;20032;-61
2022/08/28 11:33:42;;;;;;;4.47;1.80;;;21.80;99.20;;;;;;5091834;28;20415;-61
2022/08/28 11:36:11;;;;;;;3.42;1.90;;;22.00;98.50;;;;;;5092596;28;20043;-61
2022/08/28 11:38:40;;;;;;;6.25;2.10;;;22.30;97.90;;;;;;5092557;28;20384;-61
2022/08/28 11:41:35;;;;;;;3.22;1.67;;;22.20;96.60;;;;;;5092681;28;20043;-61
2022/08/28 11:44:10;;;;;;;5.00;2.00;;;22.10;96.20;;;;;;5095804;28;20525;-62
2022/08/28 11:46:40;;;;;;;4.40;1.65;;;22.30;96.50;;;;;;5096558;28;20051;-62
2022/08/28 11:49:27;;;;;;;4.63;1.70;;;22.60;96.30;;;;;;5096546;28;20036;-62
2022/08/28 11:52:22;;;;;;;7.13;1.90;;;23.00;95.90;;;;;;5096890;28;20093;-63
2022/08/28 11:54:56;;;;;;;;;;;22.80;95.10;;;;;;5096947;28;20059;-60
2022/08/28 11:57:59;;;;;;;5.10;1.67;;;22.40;95.30;;;;;;5078621;28;19915;-61
2022/08/28 12:00:25;;;;;;;4.95;1.80;;;22.30;95.40;;;;;;5095982;28;20046;-61
2022/08/28 12:03:01;;;;;;;5.32;2.08;;;22.00;95.70;;;;;;5095831;28;20115;-61
2022/08/28 12:05:30;;;;;;;5.78;1.77;;;21.60;94.80;;;;;;5093896;28;20058;-61
2022/08/28 12:07:57;;;;;;;2.70;1.50;;;21.70;95.50;;;;;;5095397;28;20426;-61
2022/08/28 12:10:26;;;;;;;5.63;2.22;;;22.00;95.60;;;;;;5096036;28;20063;-61
2022/08/28 12:12:54;;;;;;;8.07;1.83;;;22.40;96.10;;;;;;5077167;28;20035;-61
2022/08/28 12:15:26;;;;;;;4.38;1.58;;;22.30;95.70;;;;;;5096032;28;20398;-61
2022/08/28 12:17:53;;;;;;;5.28;1.60;;;22.30;95.90;;;;;;5096045;28;20080;-61
2022/08/28 12:20:41;;;;;;;6.97;2.00;;;22.40;95.90;;;;;;5095241;28;20418;-61
2022/08/28 12:23:28;;;;;;;4.72;2.08;;;22.20;96.10;;;;;;5095051;28;20052;-61
2022/08/28 12:26:04;;;;;;;3.75;1.50;;;22.10;96.20;;;;;;5094807;28;20430;-61
2022/08/28 12:28:32;;;;;;;5.93;1.90;;;22.30;96.60;;;;;;5094767;28;20058;-61
2022/08/28 12:31:03;;;;;;;6.30;1.83;;;22.20;96.60;;;;;;5096564;28;20055;-64
2022/08/28 12:33:56;;;;;;;4.68;1.77;;;22.30;96.70;;;;;;5095906;28;20119;-60
2022/08/28 12:36:27;;;;;;;3.78;1.83;;;22.30;96.50;;;;;;5094933;28;20039;-61
2022/08/28 12:38:57;;;;;;;4.90;1.50;;;22.50;96.20;;;;;;5076584;28;20051;-61
2022/08/28 12:41:23;;;;;;;4.13;1.63;;;22.50;95.90;;;;;;5094934;28;20069;-62
2022/08/28 12:43:54;;;;;;;3.90;2.10;;;22.70;95.30;;;;;;5094363;28;20050;-61
2022/08/28 12:46:39;;;;;;;3.63;1.70;;;22.90;93.80;;;;;;5110708;28;20040;-62
2022/08/28 12:49:29;;;;;;;5.72;2.20;;;23.10;93.70;;;;;;5098854;28;20096;-62
2022/08/28 12:52:15;;;;;;;3.38;1.88;;;23.40;94.20;;;;;;5094081;28;20484;-62
2022/08/28 12:54:41;;;;;;;3.50;1.80;;;23.30;93.90;;;;;;5093730;28;20095;-62
2022/08/28 12:57:13;;;;;;;4.03;2.03;;;23.30;93.90;;;;;;5076921;28;20042;-62
2022/08/28 12:59:45;;;;;;;5.22;1.67;;;23.00;94.10;;;;;;5095410;28;20059;-61
2022/08/28 13:02:25;;;;;;;5.18;2.00;;;22.80;94.50;;;;;;5074786;28;20054;-61
2022/08/28 13:05:00;;;;;;;6.05;2.40;;;22.80;94.90;;;;;;5094599;28;20047;-61